Capitol Logistics 263


KIAD
Washington Dulles International Airport
Dulles, Virginia, US
KBOS
Logan International Airport
Boston, Massachusetts, US

Route Details

Aircraft Information
Primary: Boeing 767-300BDSF
Backup: Boeing 757-200SF
Route Data
Distance: 359nm
Sched. Duration: 1h 19m
Avg. Duration: 1h 18m (-1m)
Times Flown: 11
Recm'd Route: JCOBY3 SWANN BROSS J42 RBV J222 JFK ROBUC3
Planned Altitude: 31,000ft
Origin Wx: KIAD 250852Z 01009KT 10SM SCT040 OVC048 10/03 A3013 RMK AO2 RAB32E50 SLP202 P0000 60000 T01000033 53009
Dest. Wx: KBOS 250854Z 34011KT 10SM FEW037 BKN250 06/M01 A3013 RMK AO2 SLP202 T00611006 51017
Notes:

Financial History
Total Freight: 919,514lbs
Average Load: 83,592lbs/flt
Fuel Used: 136,021lbs
Avg. Fuel Used: 12,366lbs/flt
Fuel Expense: $177,071
Avg. Fuel Expense: $16,097
Avg. Fuel Cost: $1.30/lbs
Total Gross Income: $1,219,665
Pilot Pay: $2,089
Total Expenses: $132,296
Total Revenue: $907,205
Average Revenue: $110,878.61